sensor_id;sensor_type;location;lat;lon;timestamp;P1;durP1;ratioP1;P2;durP2;ratioP2
73747;SDS011;62056;52.130;5.428;2023-02-23T00:01:52;40.17;;;20.75;;
73747;SDS011;62056;52.130;5.428;2023-02-23T00:04:20;43.40;;;21.05;;
73747;SDS011;62056;52.130;5.428;2023-02-23T00:06:49;41.08;;;20.13;;
73747;SDS011;62056;52.130;5.428;2023-02-23T00:09:18;35.47;;;18.27;;
73747;SDS011;62056;52.130;5.428;2023-02-23T00:11:49;34.95;;;19.80;;
73747;SDS011;62056;52.130;5.428;2023-02-23T00:14:18;41.10;;;20.00;;
73747;SDS011;62056;52.130;5.428;2023-02-23T00:16:45;39.80;;;20.30;;
73747;SDS011;62056;52.130;5.428;2023-02-23T00:19:12;34.63;;;19.33;;
73747;SDS011;62056;52.130;5.428;2023-02-23T00:21:41;36.80;;;18.67;;
73747;SDS011;62056;52.130;5.428;2023-02-23T00:24:10;42.22;;;19.02;;
73747;SDS011;62056;52.130;5.428;2023-02-23T00:26:40;38.65;;;20.83;;
73747;SDS011;62056;52.130;5.428;2023-02-23T00:29:13;39.13;;;19.10;;
73747;SDS011;62056;52.130;5.428;2023-02-23T00:31:46;36.20;;;18.50;;
73747;SDS011;62056;52.130;5.428;2023-02-23T00:34:14;47.17;;;21.60;;
73747;SDS011;62056;52.130;5.428;2023-02-23T00:36:48;45.08;;;21.38;;
73747;SDS011;62056;52.130;5.428;2023-02-23T00:39:16;47.22;;;23.92;;
73747;SDS011;62056;52.130;5.428;2023-02-23T00:41:44;47.90;;;23.73;;
73747;SDS011;62056;52.130;5.428;2023-02-23T00:44:12;39.05;;;19.55;;
73747;SDS011;62056;52.130;5.428;2023-02-23T00:46:42;48.17;;;22.87;;
73747;SDS011;62056;52.130;5.428;2023-02-23T00:49:12;40.92;;;20.40;;
73747;SDS011;62056;52.130;5.428;2023-02-23T00:51:38;42.38;;;21.08;;
73747;SDS011;62056;52.130;5.428;2023-02-23T00:54:05;50.55;;;22.55;;
73747;SDS011;62056;52.130;5.428;2023-02-23T00:56:33;41.50;;;19.98;;
73747;SDS011;62056;52.130;5.428;2023-02-23T00:59:00;42.57;;;20.87;;
73747;SDS011;62056;52.130;5.428;2023-02-23T01:01:29;47.50;;;22.27;;
73747;SDS011;62056;52.130;5.428;2023-02-23T01:03:55;40.58;;;19.70;;
73747;SDS011;62056;52.130;5.428;2023-02-23T01:06:22;45.22;;;22.98;;
73747;SDS011;62056;52.130;5.428;2023-02-23T01:08:50;41.97;;;21.13;;
73747;SDS011;62056;52.130;5.428;2023-02-23T01:11:24;49.53;;;21.03;;
73747;SDS011;62056;52.130;5.428;2023-02-23T01:13:54;42.72;;;20.38;;
73747;SDS011;62056;52.130;5.428;2023-02-23T01:16:23;40.50;;;20.48;;
73747;SDS011;62056;52.130;5.428;2023-02-23T01:18:54;43.17;;;20.50;;
73747;SDS011;62056;52.130;5.428;2023-02-23T01:21:23;46.42;;;22.63;;
73747;SDS011;62056;52.130;5.428;2023-02-23T01:23:53;46.93;;;23.07;;
73747;SDS011;62056;52.130;5.428;2023-02-23T01:26:25;46.70;;;21.65;;
73747;SDS011;62056;52.130;5.428;2023-02-23T01:28:55;56.38;;;24.98;;
73747;SDS011;62056;52.130;5.428;2023-02-23T01:31:24;45.78;;;22.27;;
73747;SDS011;62056;52.130;5.428;2023-02-23T01:33:52;49.67;;;23.50;;
73747;SDS011;62056;52.130;5.428;2023-02-23T01:36:20;39.33;;;21.00;;
73747;SDS011;62056;52.130;5.428;2023-02-23T01:38:48;45.15;;;22.23;;
73747;SDS011;62056;52.130;5.428;2023-02-23T01:41:15;49.33;;;23.88;;
73747;SDS011;62056;52.130;5.428;2023-02-23T01:43:53;52.67;;;23.50;;
73747;SDS011;62056;52.130;5.428;2023-02-23T01:46:22;49.72;;;24.30;;
73747;SDS011;62056;52.130;5.428;2023-02-23T01:48:49;49.17;;;23.03;;
73747;SDS011;62056;52.130;5.428;2023-02-23T01:51:18;50.90;;;24.38;;
73747;SDS011;62056;52.130;5.428;2023-02-23T01:53:50;49.53;;;24.45;;
73747;SDS011;62056;52.130;5.428;2023-02-23T01:56:24;52.15;;;25.00;;
73747;SDS011;62056;52.130;5.428;2023-02-23T01:58:55;57.90;;;25.75;;
73747;SDS011;62056;52.130;5.428;2023-02-23T02:01:24;46.83;;;23.20;;
73747;SDS011;62056;52.130;5.428;2023-02-23T02:04:00;57.25;;;25.73;;
73747;SDS011;62056;52.130;5.428;2023-02-23T02:06:32;58.42;;;26.10;;
73747;SDS011;62056;52.130;5.428;2023-02-23T02:09:03;52.08;;;24.95;;
73747;SDS011;62056;52.130;5.428;2023-02-23T02:11:40;44.92;;;22.77;;
73747;SDS011;62056;52.130;5.428;2023-02-23T02:14:13;57.57;;;24.90;;
73747;SDS011;62056;52.130;5.428;2023-02-23T02:16:59;52.17;;;25.10;;
73747;SDS011;62056;52.130;5.428;2023-02-23T02:19:50;55.92;;;24.50;;
73747;SDS011;62056;52.130;5.428;2023-02-23T02:39:52;45.85;;;22.92;;
73747;SDS011;62056;52.130;5.428;2023-02-23T02:48:03;49.55;;;22.92;;
73747;SDS011;62056;52.130;5.428;2023-02-23T02:51:12;51.33;;;21.95;;
73747;SDS011;62056;52.130;5.428;2023-02-23T02:53:59;49.58;;;24.73;;
73747;SDS011;62056;52.130;5.428;2023-02-23T02:56:36;51.27;;;23.97;;
73747;SDS011;62056;52.130;5.428;2023-02-23T02:59:06;49.85;;;24.38;;
73747;SDS011;62056;52.130;5.428;2023-02-23T03:01:55;45.95;;;23.42;;
73747;SDS011;62056;52.130;5.428;2023-02-23T03:04:41;39.95;;;20.83;;
73747;SDS011;62056;52.130;5.428;2023-02-23T03:07:29;45.55;;;22.48;;
73747;SDS011;62056;52.130;5.428;2023-02-23T03:13:30;54.42;;;23.08;;
73747;SDS011;62056;52.130;5.428;2023-02-23T03:16:35;55.30;;;25.35;;
73747;SDS011;62056;52.130;5.428;2023-02-23T03:19:34;56.13;;;26.55;;
73747;SDS011;62056;52.130;5.428;2023-02-23T03:22:25;59.60;;;26.45;;
73747;SDS011;62056;52.130;5.428;2023-02-23T03:25:19;56.00;;;25.23;;
73747;SDS011;62056;52.130;5.428;2023-02-23T03:28:17;57.97;;;26.55;;
73747;SDS011;62056;52.130;5.428;2023-02-23T03:31:19;52.47;;;24.25;;
73747;SDS011;62056;52.130;5.428;2023-02-23T03:34:16;57.35;;;25.15;;
73747;SDS011;62056;52.130;5.428;2023-02-23T03:37:17;55.72;;;24.67;;
73747;SDS011;62056;52.130;5.428;2023-02-23T03:40:11;54.53;;;24.50;;
73747;SDS011;62056;52.130;5.428;2023-02-23T03:43:04;54.58;;;25.05;;
73747;SDS011;62056;52.130;5.428;2023-02-23T03:45:52;53.28;;;24.50;;
73747;SDS011;62056;52.130;5.428;2023-02-23T03:48:40;52.28;;;24.10;;
73747;SDS011;62056;52.130;5.428;2023-02-23T03:51:30;53.35;;;24.20;;
73747;SDS011;62056;52.130;5.428;2023-02-23T03:54:24;53.87;;;25.27;;
73747;SDS011;62056;52.130;5.428;2023-02-23T03:57:14;47.90;;;23.20;;
73747;SDS011;62056;52.130;5.428;2023-02-23T04:00:04;56.15;;;24.42;;
73747;SDS011;62056;52.130;5.428;2023-02-23T04:02:53;57.92;;;24.58;;
73747;SDS011;62056;52.130;5.428;2023-02-23T04:05:41;53.90;;;23.65;;
73747;SDS011;62056;52.130;5.428;2023-02-23T04:08:31;59.17;;;25.80;;
73747;SDS011;62056;52.130;5.428;2023-02-23T04:11:22;57.03;;;24.48;;
73747;SDS011;62056;52.130;5.428;2023-02-23T04:14:18;57.65;;;25.52;;
73747;SDS011;62056;52.130;5.428;2023-02-23T04:16:50;51.47;;;24.02;;
73747;SDS011;62056;52.130;5.428;2023-02-23T04:19:19;51.75;;;24.02;;
73747;SDS011;62056;52.130;5.428;2023-02-23T04:21:46;53.17;;;23.20;;
73747;SDS011;62056;52.130;5.428;2023-02-23T04:24:13;56.53;;;24.65;;
73747;SDS011;62056;52.130;5.428;2023-02-23T04:26:40;70.78;;;26.33;;
73747;SDS011;62056;52.130;5.428;2023-02-23T04:29:07;59.28;;;26.10;;
73747;SDS011;62056;52.130;5.428;2023-02-23T04:31:35;57.83;;;26.00;;
73747;SDS011;62056;52.130;5.428;2023-02-23T04:34:02;53.00;;;23.87;;
73747;SDS011;62056;52.130;5.428;2023-02-23T04:36:30;51.45;;;23.88;;
73747;SDS011;62056;52.130;5.428;2023-02-23T04:38:57;56.67;;;24.40;;
73747;SDS011;62056;52.130;5.428;2023-02-23T04:41:23;51.70;;;24.50;;
73747;SDS011;62056;52.130;5.428;2023-02-23T04:43:50;51.38;;;24.38;;
73747;SDS011;62056;52.130;5.428;2023-02-23T04:46:17;53.17;;;24.63;;
73747;SDS011;62056;52.130;5.428;2023-02-23T04:48:44;47.95;;;23.35;;
73747;SDS011;62056;52.130;5.428;2023-02-23T04:51:11;48.88;;;22.67;;
73747;SDS011;62056;52.130;5.428;2023-02-23T04:53:37;51.25;;;23.65;;
73747;SDS011;62056;52.130;5.428;2023-02-23T04:56:05;49.88;;;24.10;;
73747;SDS011;62056;52.130;5.428;2023-02-23T04:58:32;49.73;;;24.40;;
73747;SDS011;62056;52.130;5.428;2023-02-23T05:01:05;54.13;;;22.52;;
73747;SDS011;62056;52.130;5.428;2023-02-23T05:03:33;51.50;;;23.95;;
73747;SDS011;62056;52.130;5.428;2023-02-23T05:06:02;52.25;;;22.95;;
73747;SDS011;62056;52.130;5.428;2023-02-23T05:08:29;48.72;;;22.13;;
73747;SDS011;62056;52.130;5.428;2023-02-23T05:10:56;51.03;;;23.13;;
73747;SDS011;62056;52.130;5.428;2023-02-23T05:13:22;47.88;;;21.95;;
73747;SDS011;62056;52.130;5.428;2023-02-23T05:15:49;48.72;;;21.58;;
73747;SDS011;62056;52.130;5.428;2023-02-23T05:18:21;50.17;;;21.85;;
73747;SDS011;62056;52.130;5.428;2023-02-23T05:20:48;46.42;;;21.60;;
73747;SDS011;62056;52.130;5.428;2023-02-23T05:23:15;50.13;;;21.90;;
73747;SDS011;62056;52.130;5.428;2023-02-23T05:25:41;41.15;;;19.83;;
73747;SDS011;62056;52.130;5.428;2023-02-23T05:28:10;54.15;;;25.02;;
73747;SDS011;62056;52.130;5.428;2023-02-23T05:30:36;46.20;;;20.77;;
73747;SDS011;62056;52.130;5.428;2023-02-23T05:33:03;46.60;;;21.25;;
73747;SDS011;62056;52.130;5.428;2023-02-23T05:35:30;56.70;;;22.13;;
73747;SDS011;62056;52.130;5.428;2023-02-23T05:37:56;44.58;;;19.73;;
73747;SDS011;62056;52.130;5.428;2023-02-23T05:40:23;49.00;;;21.33;;
73747;SDS011;62056;52.130;5.428;2023-02-23T05:42:49;48.22;;;21.52;;
73747;SDS011;62056;52.130;5.428;2023-02-23T05:45:16;38.63;;;18.67;;
73747;SDS011;62056;52.130;5.428;2023-02-23T05:47:43;49.70;;;21.73;;
73747;SDS011;62056;52.130;5.428;2023-02-23T05:50:10;48.72;;;20.83;;
73747;SDS011;62056;52.130;5.428;2023-02-23T05:52:37;46.75;;;19.23;;
73747;SDS011;62056;52.130;5.428;2023-02-23T05:55:08;45.03;;;20.63;;
73747;SDS011;62056;52.130;5.428;2023-02-23T05:57:37;49.00;;;20.42;;
73747;SDS011;62056;52.130;5.428;2023-02-23T06:00:04;54.20;;;23.90;;
73747;SDS011;62056;52.130;5.428;2023-02-23T06:02:32;53.92;;;23.17;;
73747;SDS011;62056;52.130;5.428;2023-02-23T06:04:58;45.35;;;21.73;;
73747;SDS011;62056;52.130;5.428;2023-02-23T06:07:27;53.30;;;22.70;;
73747;SDS011;62056;52.130;5.428;2023-02-23T06:09:54;49.60;;;23.08;;
73747;SDS011;62056;52.130;5.428;2023-02-23T06:12:21;52.00;;;23.70;;
73747;SDS011;62056;52.130;5.428;2023-02-23T06:14:49;46.58;;;21.08;;
73747;SDS011;62056;52.130;5.428;2023-02-23T06:17:16;47.28;;;21.75;;
73747;SDS011;62056;52.130;5.428;2023-02-23T06:19:43;54.75;;;22.83;;
73747;SDS011;62056;52.130;5.428;2023-02-23T06:22:10;54.78;;;22.73;;
73747;SDS011;62056;52.130;5.428;2023-02-23T06:24:37;52.27;;;23.77;;
73747;SDS011;62056;52.130;5.428;2023-02-23T06:27:03;51.95;;;22.55;;
73747;SDS011;62056;52.130;5.428;2023-02-23T06:29:30;49.85;;;22.15;;
73747;SDS011;62056;52.130;5.428;2023-02-23T06:31:57;51.45;;;23.33;;
73747;SDS011;62056;52.130;5.428;2023-02-23T06:34:26;54.35;;;21.77;;
73747;SDS011;62056;52.130;5.428;2023-02-23T06:36:53;52.77;;;22.63;;
73747;SDS011;62056;52.130;5.428;2023-02-23T06:39:19;46.97;;;21.48;;
73747;SDS011;62056;52.130;5.428;2023-02-23T06:41:46;46.08;;;21.63;;
73747;SDS011;62056;52.130;5.428;2023-02-23T06:44:13;51.17;;;22.42;;
73747;SDS011;62056;52.130;5.428;2023-02-23T06:46:40;49.70;;;20.98;;
73747;SDS011;62056;52.130;5.428;2023-02-23T06:49:07;54.37;;;22.13;;
73747;SDS011;62056;52.130;5.428;2023-02-23T06:51:36;52.63;;;23.17;;
73747;SDS011;62056;52.130;5.428;2023-02-23T06:54:03;57.15;;;23.52;;
73747;SDS011;62056;52.130;5.428;2023-02-23T06:56:29;50.85;;;21.98;;
73747;SDS011;62056;52.130;5.428;2023-02-23T06:58:56;45.33;;;21.80;;
73747;SDS011;62056;52.130;5.428;2023-02-23T07:01:23;47.50;;;21.70;;
73747;SDS011;62056;52.130;5.428;2023-02-23T07:03:49;49.97;;;22.67;;
73747;SDS011;62056;52.130;5.428;2023-02-23T07:06:16;52.28;;;22.73;;
73747;SDS011;62056;52.130;5.428;2023-02-23T07:08:43;59.75;;;23.23;;
73747;SDS011;62056;52.130;5.428;2023-02-23T07:11:12;48.95;;;21.77;;
73747;SDS011;62056;52.130;5.428;2023-02-23T07:13:40;45.33;;;20.23;;
73747;SDS011;62056;52.130;5.428;2023-02-23T07:16:10;44.70;;;20.23;;
73747;SDS011;62056;52.130;5.428;2023-02-23T07:18:39;43.92;;;20.45;;
73747;SDS011;62056;52.130;5.428;2023-02-23T07:21:06;44.58;;;20.48;;
73747;SDS011;62056;52.130;5.428;2023-02-23T07:23:33;47.45;;;20.10;;
73747;SDS011;62056;52.130;5.428;2023-02-23T07:25:59;48.47;;;21.13;;
73747;SDS011;62056;52.130;5.428;2023-02-23T07:28:26;56.63;;;22.70;;
73747;SDS011;62056;52.130;5.428;2023-02-23T07:30:54;50.80;;;21.20;;
73747;SDS011;62056;52.130;5.428;2023-02-23T07:33:23;48.45;;;20.38;;
73747;SDS011;62056;52.130;5.428;2023-02-23T07:35:50;48.45;;;20.02;;
73747;SDS011;62056;52.130;5.428;2023-02-23T07:38:17;48.10;;;20.90;;
73747;SDS011;62056;52.130;5.428;2023-02-23T07:40:44;47.60;;;20.75;;
73747;SDS011;62056;52.130;5.428;2023-02-23T07:43:10;47.65;;;20.30;;
73747;SDS011;62056;52.130;5.428;2023-02-23T07:45:37;44.55;;;20.02;;
73747;SDS011;62056;52.130;5.428;2023-02-23T07:48:04;41.75;;;19.70;;
73747;SDS011;62056;52.130;5.428;2023-02-23T07:50:31;50.10;;;21.93;;
73747;SDS011;62056;52.130;5.428;2023-02-23T07:52:57;56.00;;;22.70;;
73747;SDS011;62056;52.130;5.428;2023-02-23T07:55:25;50.70;;;22.02;;
73747;SDS011;62056;52.130;5.428;2023-02-23T07:57:51;53.00;;;20.67;;
73747;SDS011;62056;52.130;5.428;2023-02-23T08:00:19;54.30;;;22.13;;
73747;SDS011;62056;52.130;5.428;2023-02-23T08:02:46;49.07;;;22.73;;
73747;SDS011;62056;52.130;5.428;2023-02-23T08:05:12;47.85;;;21.70;;
73747;SDS011;62056;52.130;5.428;2023-02-23T08:07:39;50.17;;;22.50;;
73747;SDS011;62056;52.130;5.428;2023-02-23T08:10:06;50.05;;;22.73;;
73747;SDS011;62056;52.130;5.428;2023-02-23T08:12:33;46.05;;;20.98;;
73747;SDS011;62056;52.130;5.428;2023-02-23T08:14:59;46.40;;;21.17;;
73747;SDS011;62056;52.130;5.428;2023-02-23T08:17:26;50.20;;;21.85;;
73747;SDS011;62056;52.130;5.428;2023-02-23T08:19:52;44.30;;;20.45;;
73747;SDS011;62056;52.130;5.428;2023-02-23T08:22:19;45.13;;;20.77;;
73747;SDS011;62056;52.130;5.428;2023-02-23T08:24:46;38.78;;;19.23;;
73747;SDS011;62056;52.130;5.428;2023-02-23T08:27:13;39.53;;;19.27;;
73747;SDS011;62056;52.130;5.428;2023-02-23T08:29:40;35.67;;;17.02;;
73747;SDS011;62056;52.130;5.428;2023-02-23T08:32:06;44.20;;;20.48;;
73747;SDS011;62056;52.130;5.428;2023-02-23T08:34:38;40.78;;;20.13;;
73747;SDS011;62056;52.130;5.428;2023-02-23T08:37:05;45.15;;;20.52;;
73747;SDS011;62056;52.130;5.428;2023-02-23T08:39:33;37.50;;;19.33;;
73747;SDS011;62056;52.130;5.428;2023-02-23T08:41:59;41.53;;;19.38;;
73747;SDS011;62056;52.130;5.428;2023-02-23T08:44:26;37.25;;;17.17;;
73747;SDS011;62056;52.130;5.428;2023-02-23T08:46:53;41.08;;;19.23;;
73747;SDS011;62056;52.130;5.428;2023-02-23T08:49:21;32.65;;;17.13;;
73747;SDS011;62056;52.130;5.428;2023-02-23T08:51:48;44.73;;;20.57;;
73747;SDS011;62056;52.130;5.428;2023-02-23T08:54:15;37.85;;;19.85;;
73747;SDS011;62056;52.130;5.428;2023-02-23T08:56:43;43.17;;;20.15;;
73747;SDS011;62056;52.130;5.428;2023-02-23T08:59:11;33.28;;;16.00;;
73747;SDS011;62056;52.130;5.428;2023-02-23T09:01:39;35.90;;;15.85;;
73747;SDS011;62056;52.130;5.428;2023-02-23T09:04:07;39.27;;;17.83;;
73747;SDS011;62056;52.130;5.428;2023-02-23T09:06:35;37.92;;;17.20;;
73747;SDS011;62056;52.130;5.428;2023-02-23T09:09:01;36.58;;;19.77;;
73747;SDS011;62056;52.130;5.428;2023-02-23T09:11:28;35.97;;;17.35;;
73747;SDS011;62056;52.130;5.428;2023-02-23T09:13:55;35.65;;;17.38;;
73747;SDS011;62056;52.130;5.428;2023-02-23T09:16:21;32.10;;;16.50;;
73747;SDS011;62056;52.130;5.428;2023-02-23T09:18:48;39.95;;;18.35;;
73747;SDS011;62056;52.130;5.428;2023-02-23T09:21:16;35.65;;;16.75;;
73747;SDS011;62056;52.130;5.428;2023-02-23T09:23:48;35.85;;;17.80;;
73747;SDS011;62056;52.130;5.428;2023-02-23T09:26:17;36.65;;;17.70;;
73747;SDS011;62056;52.130;5.428;2023-02-23T09:29:20;34.93;;;17.47;;
73747;SDS011;62056;52.130;5.428;2023-02-23T09:31:48;36.85;;;16.42;;
73747;SDS011;62056;52.130;5.428;2023-02-23T09:34:18;28.52;;;14.63;;
73747;SDS011;62056;52.130;5.428;2023-02-23T09:36:45;33.60;;;15.80;;
73747;SDS011;62056;52.130;5.428;2023-02-23T09:39:12;34.65;;;16.25;;
73747;SDS011;62056;52.130;5.428;2023-02-23T09:42:01;29.60;;;13.77;;
73747;SDS011;62056;52.130;5.428;2023-02-23T09:50:27;26.23;;;12.75;;
73747;SDS011;62056;52.130;5.428;2023-02-23T09:52:59;25.50;;;12.82;;
73747;SDS011;62056;52.130;5.428;2023-02-23T09:55:45;30.33;;;13.73;;
73747;SDS011;62056;52.130;5.428;2023-02-23T09:58:23;21.73;;;10.57;;
73747;SDS011;62056;52.130;5.428;2023-02-23T10:03:48;32.53;;;12.10;;
73747;SDS011;62056;52.130;5.428;2023-02-23T10:06:19;19.77;;;10.23;;
73747;SDS011;62056;52.130;5.428;2023-02-23T10:09:10;42.77;;;14.50;;
73747;SDS011;62056;52.130;5.428;2023-02-23T10:11:57;27.00;;;12.35;;
73747;SDS011;62056;52.130;5.428;2023-02-23T10:17:53;28.65;;;12.98;;
73747;SDS011;62056;52.130;5.428;2023-02-23T10:20:42;22.33;;;10.77;;
73747;SDS011;62056;52.130;5.428;2023-02-23T10:23:34;27.67;;;13.27;;
73747;SDS011;62056;52.130;5.428;2023-02-23T10:26:06;24.17;;;11.88;;
73747;SDS011;62056;52.130;5.428;2023-02-23T10:28:34;27.75;;;12.32;;
73747;SDS011;62056;52.130;5.428;2023-02-23T10:31:03;25.10;;;12.60;;
73747;SDS011;62056;52.130;5.428;2023-02-23T10:33:44;24.20;;;11.18;;
73747;SDS011;62056;52.130;5.428;2023-02-23T10:36:14;23.17;;;9.17;;
73747;SDS011;62056;52.130;5.428;2023-02-23T10:38:45;22.08;;;9.25;;
73747;SDS011;62056;52.130;5.428;2023-02-23T10:41:12;26.23;;;10.85;;
73747;SDS011;62056;52.130;5.428;2023-02-23T10:43:40;20.27;;;10.52;;
73747;SDS011;62056;52.130;5.428;2023-02-23T10:46:17;24.98;;;12.30;;
73747;SDS011;62056;52.130;5.428;2023-02-23T10:48:48;19.77;;;9.60;;
73747;SDS011;62056;52.130;5.428;2023-02-23T10:51:23;18.92;;;9.45;;
73747;SDS011;62056;52.130;5.428;2023-02-23T10:53:54;22.60;;;10.50;;
73747;SDS011;62056;52.130;5.428;2023-02-23T10:56:21;17.70;;;8.60;;
73747;SDS011;62056;52.130;5.428;2023-02-23T10:58:50;19.48;;;8.93;;
73747;SDS011;62056;52.130;5.428;2023-02-23T11:04:28;19.55;;;9.15;;
73747;SDS011;62056;52.130;5.428;2023-02-23T11:09:43;18.48;;;9.32;;
73747;SDS011;62056;52.130;5.428;2023-02-23T11:12:18;21.67;;;9.77;;
73747;SDS011;62056;52.130;5.428;2023-02-23T11:14:50;19.83;;;9.93;;
73747;SDS011;62056;52.130;5.428;2023-02-23T11:17:26;19.85;;;7.78;;
73747;SDS011;62056;52.130;5.428;2023-02-23T11:22:55;20.08;;;9.57;;
73747;SDS011;62056;52.130;5.428;2023-02-23T11:25:34;19.95;;;9.70;;
73747;SDS011;62056;52.130;5.428;2023-02-23T11:28:02;16.30;;;9.37;;
73747;SDS011;62056;52.130;5.428;2023-02-23T11:30:33;20.73;;;9.73;;
73747;SDS011;62056;52.130;5.428;2023-02-23T11:33:03;15.32;;;7.90;;
73747;SDS011;62056;52.130;5.428;2023-02-23T11:35:37;14.95;;;7.22;;
73747;SDS011;62056;52.130;5.428;2023-02-23T11:38:25;13.20;;;7.60;;
73747;SDS011;62056;52.130;5.428;2023-02-23T11:41:00;12.33;;;6.90;;
73747;SDS011;62056;52.130;5.428;2023-02-23T11:43:29;11.30;;;6.38;;
73747;SDS011;62056;52.130;5.428;2023-02-23T11:45:57;12.02;;;6.35;;
73747;SDS011;62056;52.130;5.428;2023-02-23T11:48:29;12.52;;;6.95;;
73747;SDS011;62056;52.130;5.428;2023-02-23T11:50:58;15.32;;;7.80;;
73747;SDS011;62056;52.130;5.428;2023-02-23T11:53:39;12.27;;;8.13;;
73747;SDS011;62056;52.130;5.428;2023-02-23T11:56:12;14.80;;;7.93;;
73747;SDS011;62056;52.130;5.428;2023-02-23T11:58:46;16.10;;;7.78;;
73747;SDS011;62056;52.130;5.428;2023-02-23T12:01:27;13.55;;;7.00;;
73747;SDS011;62056;52.130;5.428;2023-02-23T12:03:59;15.32;;;6.35;;
73747;SDS011;62056;52.130;5.428;2023-02-23T12:06:29;16.10;;;8.70;;
73747;SDS011;62056;52.130;5.428;2023-02-23T12:09:00;15.20;;;8.20;;
73747;SDS011;62056;52.130;5.428;2023-02-23T12:11:39;14.55;;;7.03;;
73747;SDS011;62056;52.130;5.428;2023-02-23T12:14:19;18.15;;;7.47;;
73747;SDS011;62056;52.130;5.428;2023-02-23T12:17:15;18.38;;;8.73;;
73747;SDS011;62056;52.130;5.428;2023-02-23T12:19:52;19.90;;;9.40;;
73747;SDS011;62056;52.130;5.428;2023-02-23T12:22:27;15.00;;;7.18;;
73747;SDS011;62056;52.130;5.428;2023-02-23T12:25:00;15.75;;;7.93;;
73747;SDS011;62056;52.130;5.428;2023-02-23T12:27:33;21.50;;;9.18;;
73747;SDS011;62056;52.130;5.428;2023-02-23T12:30:26;14.93;;;8.13;;
73747;SDS011;62056;52.130;5.428;2023-02-23T12:33:04;15.30;;;7.20;;
73747;SDS011;62056;52.130;5.428;2023-02-23T12:35:42;16.75;;;8.07;;
73747;SDS011;62056;52.130;5.428;2023-02-23T12:38:17;15.27;;;7.70;;
73747;SDS011;62056;52.130;5.428;2023-02-23T12:40:55;13.00;;;6.95;;
73747;SDS011;62056;52.130;5.428;2023-02-23T12:43:39;15.50;;;8.02;;
73747;SDS011;62056;52.130;5.428;2023-02-23T12:46:20;20.27;;;8.13;;
73747;SDS011;62056;52.130;5.428;2023-02-23T12:51:43;18.58;;;8.75;;
73747;SDS011;62056;52.130;5.428;2023-02-23T12:54:19;10.52;;;6.20;;
73747;SDS011;62056;52.130;5.428;2023-02-23T12:59:39;14.33;;;7.30;;
73747;SDS011;62056;52.130;5.428;2023-02-23T13:05:38;15.18;;;8.07;;
73747;SDS011;62056;52.130;5.428;2023-02-23T13:08:28;13.95;;;7.05;;
73747;SDS011;62056;52.130;5.428;2023-02-23T13:13:55;14.23;;;8.37;;
73747;SDS011;62056;52.130;5.428;2023-02-23T13:16:37;15.05;;;6.78;;
73747;SDS011;62056;52.130;5.428;2023-02-23T13:19:12;14.63;;;7.55;;
73747;SDS011;62056;52.130;5.428;2023-02-23T13:21:51;14.27;;;7.40;;
73747;SDS011;62056;52.130;5.428;2023-02-23T13:24:25;11.23;;;6.20;;
73747;SDS011;62056;52.130;5.428;2023-02-23T13:29:44;13.20;;;6.55;;
73747;SDS011;62056;52.130;5.428;2023-02-23T13:32:15;13.38;;;7.63;;
73747;SDS011;62056;52.130;5.428;2023-02-23T13:34:48;12.20;;;6.25;;
73747;SDS011;62056;52.130;5.428;2023-02-23T13:37:19;12.13;;;6.75;;
73747;SDS011;62056;52.130;5.428;2023-02-23T13:42:31;12.27;;;6.63;;
73747;SDS011;62056;52.130;5.428;2023-02-23T13:45:26;13.05;;;7.10;;
73747;SDS011;62056;52.130;5.428;2023-02-23T13:48:05;13.88;;;5.68;;
73747;SDS011;62056;52.130;5.428;2023-02-23T13:53:42;11.40;;;6.77;;
73747;SDS011;62056;52.130;5.428;2023-02-23T13:56:15;16.70;;;8.50;;
73747;SDS011;62056;52.130;5.428;2023-02-23T13:58:45;10.10;;;6.47;;
73747;SDS011;62056;52.130;5.428;2023-02-23T14:01:17;10.52;;;6.45;;
73747;SDS011;62056;52.130;5.428;2023-02-23T14:03:52;18.17;;;7.70;;
73747;SDS011;62056;52.130;5.428;2023-02-23T14:06:22;14.27;;;6.87;;
73747;SDS011;62056;52.130;5.428;2023-02-23T14:08:52;11.18;;;6.13;;
73747;SDS011;62056;52.130;5.428;2023-02-23T14:11:46;16.25;;;6.93;;
73747;SDS011;62056;52.130;5.428;2023-02-23T14:14:36;15.27;;;7.43;;
73747;SDS011;62056;52.130;5.428;2023-02-23T14:22:22;12.40;;;6.35;;
73747;SDS011;62056;52.130;5.428;2023-02-23T14:27:58;14.38;;;7.40;;
73747;SDS011;62056;52.130;5.428;2023-02-23T14:30:42;10.38;;;5.72;;
73747;SDS011;62056;52.130;5.428;2023-02-23T14:39:00;19.02;;;7.82;;
73747;SDS011;62056;52.130;5.428;2023-02-23T14:44:29;18.60;;;8.68;;
73747;SDS011;62056;52.130;5.428;2023-02-23T14:47:06;18.13;;;8.60;;
73747;SDS011;62056;52.130;5.428;2023-02-23T14:49:34;19.70;;;9.35;;
73747;SDS011;62056;52.130;5.428;2023-02-23T14:52:05;20.38;;;9.77;;
73747;SDS011;62056;52.130;5.428;2023-02-23T14:54:34;14.10;;;7.22;;
73747;SDS011;62056;52.130;5.428;2023-02-23T14:57:04;21.42;;;9.55;;
73747;SDS011;62056;52.130;5.428;2023-02-23T14:59:43;21.10;;;9.03;;
73747;SDS011;62056;52.130;5.428;2023-02-23T15:02:15;20.63;;;9.18;;
73747;SDS011;62056;52.130;5.428;2023-02-23T15:04:47;31.88;;;11.88;;
73747;SDS011;62056;52.130;5.428;2023-02-23T15:07:21;22.92;;;10.68;;
73747;SDS011;62056;52.130;5.428;2023-02-23T15:09:54;29.10;;;11.68;;
73747;SDS011;62056;52.130;5.428;2023-02-23T15:12:29;25.33;;;11.50;;
73747;SDS011;62056;52.130;5.428;2023-02-23T15:15:02;23.88;;;10.35;;
73747;SDS011;62056;52.130;5.428;2023-02-23T15:17:35;33.53;;;11.77;;
73747;SDS011;62056;52.130;5.428;2023-02-23T15:20:09;29.75;;;12.70;;
73747;SDS011;62056;52.130;5.428;2023-02-23T15:22:42;21.23;;;8.20;;
73747;SDS011;62056;52.130;5.428;2023-02-23T15:25:14;19.60;;;6.53;;
73747;SDS011;62056;52.130;5.428;2023-02-23T15:27:43;11.98;;;4.70;;
73747;SDS011;62056;52.130;5.428;2023-02-23T15:32:43;10.20;;;3.20;;
73747;SDS011;62056;52.130;5.428;2023-02-23T15:35:11;17.85;;;3.63;;
73747;SDS011;62056;52.130;5.428;2023-02-23T15:37:43;11.20;;;2.53;;
73747;SDS011;62056;52.130;5.428;2023-02-23T15:40:30;16.33;;;2.15;;
73747;SDS011;62056;52.130;5.428;2023-02-23T15:42:57;13.50;;;3.00;;
73747;SDS011;62056;52.130;5.428;2023-02-23T15:45:38;14.27;;;2.60;;
73747;SDS011;62056;52.130;5.428;2023-02-23T15:48:11;11.10;;;2.55;;
73747;SDS011;62056;52.130;5.428;2023-02-23T15:50:44;21.50;;;2.93;;
73747;SDS011;62056;52.130;5.428;2023-02-23T15:53:29;21.67;;;2.92;;
73747;SDS011;62056;52.130;5.428;2023-02-23T15:56:03;13.02;;;2.83;;
73747;SDS011;62056;52.130;5.428;2023-02-23T15:58:46;14.30;;;2.00;;
73747;SDS011;62056;52.130;5.428;2023-02-23T16:01:28;9.68;;;1.40;;
73747;SDS011;62056;52.130;5.428;2023-02-23T16:06:49;8.40;;;1.50;;
73747;SDS011;62056;52.130;5.428;2023-02-23T16:09:37;5.28;;;1.13;;
73747;SDS011;62056;52.130;5.428;2023-02-23T16:12:08;14.02;;;1.52;;
73747;SDS011;62056;52.130;5.428;2023-02-23T16:14:42;10.88;;;2.03;;
73747;SDS011;62056;52.130;5.428;2023-02-23T16:20:16;12.70;;;2.13;;
73747;SDS011;62056;52.130;5.428;2023-02-23T16:22:45;11.13;;;2.30;;
73747;SDS011;62056;52.130;5.428;2023-02-23T16:25:14;13.50;;;2.70;;
73747;SDS011;62056;52.130;5.428;2023-02-23T16:27:43;16.92;;;2.72;;
73747;SDS011;62056;52.130;5.428;2023-02-23T16:30:16;16.27;;;2.47;;
73747;SDS011;62056;52.130;5.428;2023-02-23T16:32:44;12.70;;;2.58;;